createdAt,value
2018-01-26T00:00:24.419Z,101.12
2018-01-26T00:02:52.012Z,96.85
2018-01-26T00:05:19.598Z,86.50
2018-01-26T00:07:47.954Z,102.22
2018-01-26T00:10:15.539Z,95.78
2018-01-26T00:12:43.903Z,91.53
2018-01-26T00:15:11.490Z,97.80
2018-01-26T00:17:39.840Z,92.45
2018-01-26T00:20:07.423Z,91.10
2018-01-26T00:22:35.015Z,94.35
2018-01-26T00:25:02.607Z,104.43
2018-01-26T00:27:30.242Z,101.30
2018-01-26T00:29:57.831Z,96.68
2018-01-26T00:32:25.434Z,105.32
2018-01-26T00:34:53.026Z,98.12
2018-01-26T00:37:21.374Z,95.03
2018-01-26T00:39:48.958Z,97.90
2018-01-26T00:42:16.554Z,90.78
2018-01-26T00:44:44.183Z,95.65
2018-01-26T00:47:11.766Z,95.97
2018-01-26T00:49:40.122Z,100.32
2018-01-26T00:52:07.706Z,86.97
2018-01-26T00:54:36.070Z,94.72
2018-01-26T00:57:03.706Z,88.28
2018-01-26T00:59:31.300Z,92.75
2018-01-26T01:01:58.894Z,92.03
2018-01-26T01:04:27.246Z,94.00
2018-01-26T01:06:54.840Z,91.35
2018-01-26T01:09:23.193Z,103.22
2018-01-26T01:11:50.774Z,88.72
2018-01-26T01:14:18.363Z,95.43
2018-01-26T01:16:45.955Z,92.85
2018-01-26T01:19:13.546Z,99.82
2018-01-26T01:21:41.143Z,91.12
2018-01-26T01:24:09.503Z,90.90
2018-01-26T01:26:37.100Z,82.28
2018-01-26T01:29:05.498Z,85.70
2018-01-26T01:31:33.090Z,97.93
2018-01-26T01:34:00.679Z,93.55
2018-01-26T01:36:28.266Z,97.53
2018-01-26T01:38:55.859Z,92.37
2018-01-26T01:41:23.518Z,104.10
2018-01-26T01:43:51.147Z,91.32
2018-01-26T01:46:18.738Z,87.43
2018-01-26T01:48:58.797Z,91.07
2018-01-26T01:51:26.386Z,93.93
2018-01-26T01:53:53.980Z,92.80
2018-01-26T01:56:21.566Z,88.43
2018-01-26T01:58:49.924Z,83.97
2018-01-26T02:01:17.515Z,88.20
2018-01-26T02:03:45.867Z,90.50
2018-01-26T02:06:13.454Z,87.10
2018-01-26T02:08:41.037Z,85.60
2018-01-26T02:11:09.389Z,93.65
2018-01-26T02:13:36.974Z,91.10
2018-01-26T02:16:05.375Z,97.40
2018-01-26T02:18:32.961Z,96.78
2018-01-26T02:21:00.547Z,87.55
2018-01-26T02:23:28.134Z,87.85
2018-01-26T02:25:55.722Z,91.75
2018-01-26T02:28:24.070Z,81.28
2018-01-26T02:30:51.666Z,80.20
2018-01-26T02:33:20.017Z,90.40
2018-01-26T02:35:47.606Z,81.43
2018-01-26T02:38:15.962Z,80.80
2018-01-26T02:40:44.553Z,82.85
2018-01-26T02:43:12.143Z,81.12
2018-01-26T02:45:40.498Z,81.15
2018-01-26T02:48:08.083Z,89.70
2018-01-26T02:50:36.438Z,83.53
2018-01-26T02:53:04.030Z,87.53
2018-01-26T02:55:32.432Z,85.68
2018-01-26T02:58:00.028Z,86.85
2018-01-26T03:00:27.618Z,82.03
2018-01-26T03:02:55.220Z,86.00
2018-01-26T03:05:23.582Z,86.05
2018-01-26T03:07:51.186Z,76.15
2018-01-26T03:10:18.770Z,79.80
2018-01-26T03:12:46.355Z,81.30
2018-01-26T03:15:13.943Z,78.32
2018-01-26T03:17:41.526Z,85.35
2018-01-26T03:20:09.881Z,84.97
2018-01-26T03:22:37.470Z,80.40
2018-01-26T03:25:05.870Z,79.50
2018-01-26T03:27:33.458Z,83.95
2018-01-26T03:30:01.049Z,77.15
2018-01-26T03:32:28.713Z,79.53
2018-01-26T03:34:56.304Z,86.47
2018-01-26T03:37:23.898Z,85.82
2018-01-26T03:39:51.492Z,83.40
2018-01-26T03:42:19.083Z,77.97
2018-01-26T03:44:46.679Z,86.07
2018-01-26T03:47:15.071Z,82.00
2018-01-26T03:49:42.660Z,82.50
2018-01-26T03:52:10.242Z,73.68
2018-01-26T03:54:37.826Z,80.00
2018-01-26T03:57:05.421Z,77.35
2018-01-26T03:59:33.774Z,82.32
2018-01-26T04:02:01.365Z,73.78
2018-01-26T04:04:29.719Z,77.47
2018-01-26T04:06:57.307Z,82.47
2018-01-26T04:09:25.658Z,82.32
2018-01-26T04:11:53.300Z,78.70
2018-01-26T04:14:20.900Z,80.82
2018-01-26T04:16:48.519Z,90.82
2018-01-26T04:19:16.107Z,76.43
2018-01-26T04:21:43.694Z,77.87
2018-01-26T04:24:11.284Z,89.37
2018-01-26T04:26:39.643Z,85.68
2018-01-26T04:29:07.226Z,81.45
2018-01-26T04:31:35.595Z,81.43
2018-01-26T04:34:03.183Z,89.53
2018-01-26T04:36:31.538Z,89.72
2018-01-26T04:38:59.131Z,90.10
2018-01-26T04:41:27.520Z,96.55
2018-01-26T04:43:55.110Z,95.57
2018-01-26T04:46:22.700Z,88.45
2018-01-26T04:48:50.290Z,87.45
2018-01-26T04:51:17.879Z,86.07
2018-01-26T04:53:46.227Z,87.00
2018-01-26T04:56:13.814Z,87.75
2018-01-26T04:58:42.166Z,87.55
2018-01-26T05:01:09.750Z,84.28
2018-01-26T05:03:38.104Z,75.70
2018-01-26T05:06:05.714Z,83.40
2018-01-26T05:08:34.066Z,82.12
2018-01-26T05:11:01.651Z,92.43
2018-01-26T05:13:29.998Z,83.37
2018-01-26T05:15:57.594Z,97.43
2018-01-26T05:18:25.995Z,82.32
2018-01-26T05:20:54.357Z,94.93
2018-01-26T05:23:21.951Z,88.70
2018-01-26T05:25:49.545Z,88.72
2018-01-26T05:28:17.143Z,86.22
2018-01-26T05:30:44.742Z,91.70
2018-01-26T05:33:12.330Z,79.03
2018-01-26T05:35:39.927Z,84.68
2018-01-26T05:38:07.514Z,76.37
2018-01-26T05:40:35.878Z,78.55
2018-01-26T05:43:03.483Z,76.43
2018-01-26T05:45:31.084Z,82.10
2018-01-26T05:47:58.674Z,81.43
2018-01-26T05:50:26.267Z,86.75
2018-01-26T05:52:54.633Z,75.53
2018-01-26T05:55:22.264Z,79.05
2018-01-26T05:57:49.896Z,84.05
2018-01-26T06:00:17.490Z,95.55
2018-01-26T06:02:45.137Z,80.30
2018-01-26T06:05:12.734Z,83.20
2018-01-26T06:07:40.323Z,94.87
2018-01-26T06:10:07.918Z,81.53
2018-01-26T06:12:35.546Z,79.50
2018-01-26T06:15:03.142Z,78.80
2018-01-26T06:17:30.802Z,76.32
2018-01-26T06:19:59.155Z,75.60
2018-01-26T06:22:26.791Z,78.75
2018-01-26T06:24:54.406Z,73.82
2018-01-26T06:27:22.795Z,77.50
2018-01-26T06:29:51.178Z,77.93
2018-01-26T06:32:19.582Z,80.45
2018-01-26T06:34:47.179Z,74.03
2018-01-26T06:37:14.770Z,82.07
2018-01-26T06:39:42.374Z,74.10
2018-01-26T06:42:09.957Z,80.05
2018-01-26T06:44:37.554Z,82.72
2018-01-26T06:47:05.148Z,89.07
2018-01-26T06:49:33.508Z,87.40
2018-01-26T06:52:01.091Z,72.32
2018-01-26T06:54:29.448Z,74.00
2018-01-26T06:56:57.035Z,79.10
2018-01-26T06:59:24.626Z,80.43
2018-01-26T07:02:02.962Z,73.55
2018-01-26T07:04:30.551Z,77.15
2018-01-26T07:06:58.138Z,76.20
2018-01-26T07:09:26.499Z,79.50
2018-01-26T07:11:54.093Z,77.50
2018-01-26T07:14:22.451Z,76.30
2018-01-26T07:16:50.038Z,74.80
2018-01-26T07:19:18.439Z,78.15
2018-01-26T07:21:46.826Z,79.20
2018-01-26T07:24:14.427Z,78.35
2018-01-26T07:26:42.067Z,79.65
2018-01-26T07:29:09.654Z,70.47
2018-01-26T07:31:37.241Z,69.80
2018-01-26T07:34:04.854Z,79.47
2018-01-26T07:36:32.450Z,71.85
2018-01-26T07:39:00.051Z,80.70
2018-01-26T07:41:27.643Z,79.05
2018-01-26T07:43:55.227Z,71.15
2018-01-26T07:46:22.819Z,77.97
2018-01-26T07:48:50.414Z,77.78
2018-01-26T07:51:18.008Z,71.40
2018-01-26T07:53:45.616Z,84.60
2018-01-26T07:56:13.198Z,83.22
2018-01-26T07:58:40.793Z,74.05
2018-01-26T08:01:09.150Z,83.90
2018-01-26T08:03:36.783Z,80.57
2018-01-26T08:06:04.487Z,76.60
2018-01-26T08:08:33.003Z,75.50
2018-01-26T08:11:00.605Z,76.72
2018-01-26T08:13:28.199Z,75.32
2018-01-26T08:15:55.786Z,72.82
2018-01-26T08:18:24.351Z,67.75
2018-01-26T08:20:51.943Z,75.15
2018-01-26T08:23:19.539Z,74.90
2018-01-26T08:25:47.126Z,67.18
2018-01-26T08:28:14.715Z,69.00
2018-01-26T08:30:42.305Z,74.90
2018-01-26T08:33:09.907Z,80.53
2018-01-26T08:35:37.503Z,81.57
2018-01-26T08:38:05.095Z,74.15
2018-01-26T08:40:32.683Z,75.87
2018-01-26T08:43:00.275Z,71.87
2018-01-26T08:45:27.864Z,69.57
2018-01-26T08:47:55.455Z,72.25
2018-01-26T08:50:23.810Z,70.22
2018-01-26T08:52:51.406Z,82.50
2018-01-26T08:55:19.536Z,77.40
2018-01-26T08:57:47.128Z,72.12
2018-01-26T09:00:15.545Z,77.00
2018-01-26T09:02:43.138Z,75.43
2018-01-26T09:05:10.726Z,72.07
2018-01-26T09:07:38.311Z,66.07
2018-01-26T09:10:06.674Z,76.60
2018-01-26T09:12:34.260Z,69.57
2018-01-26T09:15:02.618Z,72.85
2018-01-26T09:17:30.982Z,70.93
2018-01-26T09:19:59.380Z,75.37
2018-01-26T09:22:27.033Z,72.22
2018-01-26T09:24:54.591Z,72.35
2018-01-26T09:27:22.180Z,77.75
2018-01-26T09:29:49.794Z,67.97
2018-01-26T09:32:17.387Z,63.78
2018-01-26T09:34:44.971Z,64.53
2018-01-26T09:37:12.586Z,64.12
2018-01-26T09:39:40.228Z,69.62
2018-01-26T09:42:08.590Z,70.62
2018-01-26T09:44:36.182Z,70.50
2018-01-26T09:47:03.798Z,71.57
2018-01-26T09:49:31.430Z,80.50
2018-01-26T09:51:59.014Z,70.22
2018-01-26T09:54:26.603Z,69.45
2018-01-26T09:56:54.190Z,73.37
2018-01-26T09:59:22.542Z,66.72
2018-01-26T10:01:50.130Z,69.37
2018-01-26T10:04:17.714Z,71.18
2018-01-26T10:06:46.084Z,70.03
2018-01-26T10:09:14.443Z,71.70
2018-01-26T10:11:42.043Z,70.25
2018-01-26T10:14:10.403Z,67.28
2018-01-26T10:16:38.003Z,68.55
2018-01-26T10:19:05.602Z,70.57
2018-01-26T10:21:33.218Z,67.40
2018-01-26T10:24:01.571Z,69.95
2018-01-26T10:26:29.164Z,69.32
2018-01-26T10:28:58.543Z,70.57
2018-01-26T10:31:26.139Z,62.65
2018-01-26T10:33:54.490Z,69.47
2018-01-26T10:36:22.086Z,72.72
2018-01-26T10:38:49.683Z,76.05
2018-01-26T10:41:17.274Z,70.75
2018-01-26T10:43:44.894Z,61.10
2018-01-26T10:46:12.478Z,63.25
2018-01-26T10:48:40.114Z,65.35
2018-01-26T10:51:08.539Z,64.40
2018-01-26T10:53:36.131Z,66.72
2018-01-26T10:56:03.727Z,65.78
2018-01-26T10:58:32.079Z,63.55
2018-01-26T11:00:59.671Z,70.65
2018-01-26T11:03:28.034Z,70.97
2018-01-26T11:05:55.635Z,69.57
2018-01-26T11:08:23.224Z,69.85
2018-01-26T11:10:50.814Z,77.20
2018-01-26T11:13:18.406Z,80.38
2018-01-26T11:15:45.998Z,82.18
2018-01-26T11:18:13.610Z,84.35
2018-01-26T11:20:41.254Z,87.18
2018-01-26T11:23:08.850Z,70.28
2018-01-26T11:25:36.439Z,72.80
2018-01-26T11:28:04.818Z,77.30
2018-01-26T11:30:33.180Z,74.90
2018-01-26T11:33:00.810Z,77.87
2018-01-26T11:35:28.407Z,73.90
2018-01-26T11:37:56.003Z,72.30
2018-01-26T11:40:24.366Z,82.20
2018-01-26T11:42:52.728Z,67.90
2018-01-26T11:45:20.310Z,70.32
2018-01-26T11:47:47.900Z,75.25
2018-01-26T11:50:16.290Z,74.97
2018-01-26T11:52:43.878Z,78.47
2018-01-26T11:55:11.479Z,69.82
2018-01-26T11:57:39.082Z,70.10
2018-01-26T12:00:06.671Z,74.68
2018-01-26T12:02:34.258Z,74.90
2018-01-26T12:05:01.847Z,78.57
2018-01-26T12:07:29.435Z,76.68
2018-01-26T12:09:57.783Z,83.12
2018-01-26T12:12:25.364Z,77.60
2018-01-26T12:14:52.968Z,79.43
2018-01-26T12:17:20.558Z,75.97
2018-01-26T12:19:48.166Z,73.47
2018-01-26T12:22:16.547Z,81.12
2018-01-26T12:24:44.913Z,77.15
2018-01-26T12:27:12.578Z,73.90
2018-01-26T12:29:40.175Z,83.05
2018-01-26T12:32:08.534Z,81.50
2018-01-26T12:34:36.198Z,76.35
2018-01-26T12:37:04.563Z,82.93
2018-01-26T12:39:32.732Z,83.22
2018-01-26T12:42:00.326Z,76.62
2018-01-26T12:44:27.952Z,79.85
2018-01-26T12:46:55.539Z,101.53
2018-01-26T12:49:23.153Z,84.00
2018-01-26T12:51:50.744Z,80.18
2018-01-26T12:54:18.355Z,96.28
2018-01-26T12:56:45.940Z,79.53
2018-01-26T12:59:13.541Z,80.40
2018-01-26T13:01:41.169Z,75.18
2018-01-26T13:04:09.571Z,83.57
2018-01-26T13:06:37.174Z,79.72
2018-01-26T13:09:04.836Z,79.28
2018-01-26T13:11:32.441Z,80.60
2018-01-26T13:14:00.834Z,77.57
2018-01-26T13:16:28.432Z,80.80
2018-01-26T13:18:56.082Z,86.05
2018-01-26T13:21:23.674Z,83.43
2018-01-26T13:23:51.283Z,80.50
2018-01-26T13:26:19.660Z,80.60
2018-01-26T13:28:48.019Z,84.32
2018-01-26T13:31:15.623Z,79.35
2018-01-26T13:33:43.989Z,84.20
2018-01-26T13:36:11.602Z,87.05
2018-01-26T13:38:39.199Z,86.12
2018-01-26T13:41:06.843Z,105.32
2018-01-26T13:43:34.472Z,100.80
2018-01-26T13:46:02.071Z,112.28
2018-01-26T13:48:29.759Z,94.53
2018-01-26T13:50:57.352Z,93.90
2018-01-26T13:53:24.951Z,86.75
2018-01-26T13:55:52.555Z,96.47
2018-01-26T13:58:20.199Z,96.07
2018-01-26T14:00:47.799Z,97.45
2018-01-26T14:03:15.399Z,95.25
2018-01-26T14:05:43.003Z,104.95
2018-01-26T14:08:10.663Z,98.32
2018-01-26T14:10:38.256Z,88.60
2018-01-26T14:13:05.856Z,94.75
2018-01-26T14:15:33.469Z,103.62
2018-01-26T14:18:01.063Z,146.05
2018-01-26T14:20:28.684Z,124.50
2018-01-26T14:22:56.289Z,139.55
2018-01-26T14:25:23.887Z,113.45
2018-01-26T14:27:51.491Z,93.37
2018-01-26T14:30:19.079Z,105.07
2018-01-26T14:32:46.682Z,121.05
2018-01-26T14:35:14.342Z,114.00
2018-01-26T14:37:41.951Z,119.20
2018-01-26T14:40:09.561Z,104.60
2018-01-26T14:42:37.973Z,102.43
2018-01-26T14:45:05.578Z,98.15
2018-01-26T14:47:33.172Z,101.57
2018-01-26T14:50:01.539Z,133.27
2018-01-26T14:52:29.127Z,94.22
2018-01-26T14:54:56.726Z,96.72
2018-01-26T14:57:24.319Z,95.45
2018-01-26T14:59:51.915Z,90.15
2018-01-26T15:02:20.282Z,102.55
2018-01-26T15:04:47.895Z,111.70
2018-01-26T15:07:15.526Z,114.62
2018-01-26T15:09:43.934Z,119.40
2018-01-26T15:12:11.517Z,96.93
2018-01-26T15:14:39.106Z,96.40
2018-01-26T15:17:06.691Z,111.60
2018-01-26T15:19:34.282Z,116.47
2018-01-26T15:22:02.631Z,138.40
2018-01-26T15:24:30.256Z,108.90
2018-01-26T15:26:57.843Z,121.18
2018-01-26T15:29:25.434Z,103.30
2018-01-26T15:31:53.039Z,112.22
2018-01-26T15:34:20.655Z,102.35
2018-01-26T15:36:48.253Z,96.45
2018-01-26T15:39:16.604Z,118.05
2018-01-26T15:41:44.242Z,165.82
2018-01-26T15:44:11.831Z,178.57
2018-01-26T15:46:39.420Z,98.78
2018-01-26T15:49:07.003Z,96.45
2018-01-26T15:51:34.594Z,100.20
2018-01-26T15:54:02.179Z,97.32
2018-01-26T15:56:29.774Z,97.80
2018-01-26T15:58:58.131Z,103.53
2018-01-26T16:01:25.733Z,101.70
2018-01-26T16:03:53.338Z,102.12
2018-01-26T16:06:20.969Z,113.90
2018-01-26T16:08:48.842Z,99.57
2018-01-26T16:11:16.431Z,106.35
2018-01-26T16:13:44.015Z,119.28
2018-01-26T16:16:11.611Z,113.25
2018-01-26T16:18:39.266Z,115.18
2018-01-26T16:21:06.859Z,98.07
2018-01-26T16:23:35.214Z,111.43
2018-01-26T16:26:02.853Z,107.35
2018-01-26T16:28:30.442Z,109.63
2018-01-26T16:30:58.050Z,109.47
2018-01-26T16:33:25.647Z,107.35
2018-01-26T16:35:53.235Z,138.10
2018-01-26T16:38:20.836Z,219.35
2018-01-26T16:40:49.255Z,144.05
2018-01-26T16:43:16.843Z,122.78
2018-01-26T16:45:44.436Z,121.30
2018-01-26T16:48:12.061Z,121.13
2018-01-26T16:50:39.662Z,125.30
2018-01-26T16:53:07.265Z,125.80
2018-01-26T16:55:35.954Z,116.72
2018-01-26T16:58:04.494Z,127.50
2018-01-26T17:00:33.081Z,124.90
2018-01-26T17:03:01.676Z,125.68
2018-01-26T17:05:30.063Z,112.68
2018-01-26T17:07:57.663Z,128.75
2018-01-26T17:10:25.270Z,122.90
2018-01-26T17:12:52.865Z,121.47
2018-01-26T17:15:21.225Z,125.68
2018-01-26T17:17:48.928Z,120.45
2018-01-26T17:20:16.565Z,119.65
2018-01-26T17:22:44.174Z,126.50
2018-01-26T17:25:11.777Z,131.57
2018-01-26T17:27:39.391Z,131.70
2018-01-26T17:30:06.985Z,130.18
2018-01-26T17:32:34.623Z,127.03
2018-01-26T17:35:02.285Z,132.50
2018-01-26T17:37:29.907Z,128.43
2018-01-26T17:39:57.511Z,119.45
2018-01-26T17:42:25.878Z,112.30
2018-01-26T17:44:54.255Z,123.43
2018-01-26T17:47:21.858Z,112.82
2018-01-26T17:49:49.447Z,116.53
2018-01-26T17:52:18.720Z,115.85
2018-01-26T17:54:46.339Z,114.68
2018-01-26T17:57:13.963Z,132.65
2018-01-26T17:59:41.598Z,124.40
2018-01-26T18:02:10.023Z,117.20
2018-01-26T18:04:37.642Z,125.35
2018-01-26T18:07:05.997Z,126.30
2018-01-26T18:09:33.583Z,125.50
2018-01-26T18:12:01.223Z,114.10
2018-01-26T18:14:28.814Z,128.32
2018-01-26T18:16:56.486Z,119.22
2018-01-26T18:19:24.847Z,122.15
2018-01-26T18:21:52.457Z,122.82
2018-01-26T18:24:20.046Z,134.52
2018-01-26T18:26:48.442Z,132.20
2018-01-26T18:29:16.814Z,119.70
2018-01-26T18:31:45.214Z,117.10
2018-01-26T18:34:12.839Z,121.00
2018-01-26T18:36:40.433Z,125.75
2018-01-26T18:39:08.798Z,114.32
2018-01-26T18:41:36.417Z,115.22
2018-01-26T18:44:04.055Z,115.97
2018-01-26T18:46:31.650Z,125.43
2018-01-26T18:48:59.305Z,132.65
2018-01-26T18:51:27.720Z,124.72
2018-01-26T18:53:55.327Z,126.50
2018-01-26T18:56:23.695Z,117.40
2018-01-26T18:58:51.290Z,123.20
2018-01-26T19:01:18.893Z,114.43
2018-01-26T19:03:46.535Z,113.32
2018-01-26T19:06:14.187Z,124.95
2018-01-26T19:08:41.795Z,136.32
2018-01-26T19:11:12.641Z,128.70
2018-01-26T19:13:40.289Z,131.50
2018-01-26T19:16:07.894Z,132.73
2018-01-26T19:18:36.470Z,124.72
2018-01-26T19:21:04.110Z,122.65
2018-01-26T19:23:31.707Z,120.50
2018-01-26T19:25:59.323Z,124.03
2018-01-26T19:28:26.919Z,128.80
2018-01-26T19:30:54.512Z,131.85
2018-01-26T19:33:22.185Z,133.75
2018-01-26T19:35:50.619Z,139.35
2018-01-26T19:38:18.230Z,147.52
2018-01-26T19:40:46.647Z,145.82
2018-01-26T19:43:14.315Z,171.37
2018-01-26T19:45:41.919Z,149.55
2018-01-26T19:48:09.513Z,130.02
2018-01-26T19:50:37.901Z,139.30
2018-01-26T19:53:06.270Z,141.75
2018-01-26T19:55:34.635Z,141.68
2018-01-26T19:58:02.239Z,145.00
2018-01-26T20:00:29.862Z,130.70
2018-01-26T20:06:03.898Z,134.87
2018-01-26T20:08:38.278Z,132.20
2018-01-26T20:11:05.882Z,135.40
2018-01-26T20:13:33.477Z,138.95
2018-01-26T20:16:01.584Z,129.80
2018-01-26T20:18:30.395Z,135.50
2018-01-26T20:20:58.329Z,165.07
2018-01-26T20:23:26.942Z,199.27
2018-01-26T20:25:54.551Z,181.27
2018-01-26T20:28:23.378Z,134.95
2018-01-26T20:30:50.991Z,139.25
2018-01-26T20:33:19.015Z,150.20
2018-01-26T20:35:46.986Z,143.57
2018-01-26T20:38:14.636Z,137.05
2018-01-26T20:40:42.246Z,136.05
2018-01-26T20:43:09.854Z,125.40
2018-01-26T20:45:39.720Z,131.12
2018-01-26T20:48:07.686Z,137.82
2018-01-26T20:50:35.515Z,141.10
2018-01-26T20:53:04.140Z,139.07
2018-01-26T20:55:31.978Z,141.95
2018-01-26T20:58:00.507Z,147.37
2018-01-26T21:00:28.139Z,150.32
2018-01-26T21:02:56.510Z,152.52
2018-01-26T21:05:24.406Z,149.75
2018-01-26T21:07:52.002Z,165.50
2018-01-26T21:10:20.199Z,167.43
2018-01-26T21:12:48.129Z,156.65
2018-01-26T21:15:15.966Z,169.30
2018-01-26T21:17:44.886Z,156.52
2018-01-26T21:20:12.494Z,165.82
2018-01-26T21:22:41.112Z,160.60
2018-01-26T21:25:08.721Z,162.27
2018-01-26T21:27:36.375Z,162.45
2018-01-26T21:30:04.138Z,178.30
2018-01-26T21:32:31.742Z,180.07
2018-01-26T21:34:59.494Z,181.55
2018-01-26T21:37:27.153Z,198.13
2018-01-26T21:39:55.819Z,199.98
2018-01-26T21:42:24.455Z,183.98
2018-01-26T21:44:52.403Z,186.37
2018-01-26T21:47:20.018Z,170.23
2018-01-26T21:49:48.699Z,164.37
2018-01-26T21:52:16.552Z,175.15
2018-01-26T21:54:44.493Z,188.55
2018-01-26T21:57:12.112Z,181.80
2018-01-26T21:59:39.991Z,189.40
2018-01-26T22:02:07.608Z,194.73
2018-01-26T22:04:41.446Z,207.93
2018-01-26T22:10:14.805Z,213.60
2018-01-26T22:12:42.422Z,194.55
2018-01-26T22:15:10.286Z,192.20
2018-01-26T22:17:38.107Z,210.73
2018-01-26T22:20:06.080Z,219.80
2018-01-26T22:22:33.674Z,213.62
2018-01-26T22:25:01.287Z,208.45
2018-01-26T22:27:29.908Z,229.63
2018-01-26T22:29:57.506Z,209.95
2018-01-26T22:32:25.186Z,211.18
2018-01-26T22:34:52.787Z,220.77
2018-01-26T22:37:21.391Z,235.90
2018-01-26T22:39:49.273Z,242.10
2018-01-26T22:42:17.143Z,236.37
2018-01-26T22:44:45.769Z,227.25
2018-01-26T22:47:13.366Z,260.40
2018-01-26T22:49:41.794Z,241.32
2018-01-26T22:52:09.602Z,228.45
2018-01-26T22:54:37.423Z,256.80
2018-01-26T22:57:06.110Z,250.52
2018-01-26T22:59:33.982Z,243.32
2018-01-26T23:02:01.894Z,248.25
2018-01-26T23:04:29.718Z,263.55
2018-01-26T23:06:57.698Z,250.20
2018-01-26T23:09:25.760Z,242.20
2018-01-26T23:11:53.372Z,294.37
2018-01-26T23:14:21.027Z,220.10
2018-01-26T23:16:48.622Z,271.92
2018-01-26T23:19:16.214Z,261.75
2018-01-26T23:21:43.814Z,266.70
2018-01-26T23:24:11.423Z,251.57
2018-01-26T23:26:40.012Z,255.45
2018-01-26T23:29:08.735Z,252.18
2018-01-26T23:31:36.338Z,238.77
2018-01-26T23:34:04.270Z,241.65
2018-01-26T23:36:31.874Z,231.23
2018-01-26T23:38:59.465Z,214.05
2018-01-26T23:41:27.055Z,240.15
2018-01-26T23:43:54.647Z,233.05
2018-01-26T23:46:22.282Z,222.12
2018-01-26T23:48:49.870Z,248.73
2018-01-26T23:51:17.512Z,217.15
2018-01-26T23:53:45.102Z,231.23
2018-01-26T23:56:12.695Z,225.48
2018-01-26T23:58:40.310Z,229.15
